createdAt,value
2018-07-05T00:00:46.440Z,2.10
2018-07-05T00:01:46.428Z,1.60
2018-07-05T00:02:51.219Z,1.70
2018-07-05T00:03:46.440Z,2.30
2018-07-05T00:04:46.398Z,2.50
2018-07-05T00:05:46.385Z,2.10
2018-07-05T00:06:46.418Z,1.70
2018-07-05T00:07:46.367Z,1.70
2018-07-05T00:08:46.354Z,1.70
2018-07-05T00:09:46.371Z,2.30
2018-07-05T00:10:46.335Z,1.70
2018-07-05T00:11:46.332Z,1.80
2018-07-05T00:12:46.315Z,2.00
2018-07-05T00:13:46.405Z,1.70
2018-07-05T00:14:46.297Z,2.30
2018-07-05T00:15:46.315Z,2.30
2018-07-05T00:16:46.276Z,1.70
2018-07-05T00:17:46.277Z,1.60
2018-07-05T00:18:46.256Z,1.60
2018-07-05T00:19:46.579Z,2.40
2018-07-05T00:20:46.289Z,2.10
2018-07-05T00:21:46.259Z,2.60
2018-07-05T00:22:46.213Z,2.00
2018-07-05T00:23:46.199Z,2.60
2018-07-05T00:24:46.193Z,1.80
2018-07-05T00:25:46.184Z,1.70
2018-07-05T00:26:46.173Z,1.50
2018-07-05T00:27:46.291Z,1.80
2018-07-05T00:28:46.156Z,2.20
2018-07-05T00:29:46.146Z,1.90
2018-07-05T00:30:46.132Z,1.90
2018-07-05T00:31:46.125Z,1.90
2018-07-05T00:32:46.115Z,1.90
2018-07-05T00:33:46.118Z,1.60
2018-07-05T00:34:46.127Z,2.70
2018-07-05T00:35:46.082Z,1.50
2018-07-05T00:36:46.069Z,2.20
2018-07-05T00:37:46.060Z,1.40
2018-07-05T00:38:46.052Z,2.20
2018-07-05T00:39:46.060Z,2.00
2018-07-05T00:40:46.031Z,1.70
2018-07-05T00:41:46.054Z,1.50
2018-07-05T00:42:46.010Z,1.80
2018-07-05T00:43:45.997Z,2.20
2018-07-05T00:44:45.989Z,2.20
2018-07-05T00:45:46.011Z,1.90
2018-07-05T00:46:45.969Z,1.70
2018-07-05T00:47:45.953Z,1.90
2018-07-05T00:48:45.986Z,2.50
2018-07-05T00:49:45.940Z,2.20
2018-07-05T00:50:45.927Z,1.70
2018-07-05T00:51:45.945Z,1.60
2018-07-05T00:52:45.904Z,2.10
2018-07-05T00:53:45.891Z,2.00
2018-07-05T00:54:45.881Z,2.00
2018-07-05T00:55:45.908Z,1.60
2018-07-05T00:56:45.886Z,1.80
2018-07-05T00:57:45.868Z,1.90
2018-07-05T00:58:45.953Z,2.00
2018-07-05T00:59:45.829Z,2.20
2018-07-05T01:00:46.143Z,2.80
2018-07-05T01:01:45.806Z,1.50
2018-07-05T01:02:45.953Z,1.70
2018-07-05T01:03:50.612Z,1.90
2018-07-05T01:04:45.774Z,1.60
2018-07-05T01:05:45.763Z,2.10
2018-07-05T01:06:45.755Z,1.80
2018-07-05T01:07:45.744Z,1.70
2018-07-05T01:08:45.733Z,1.70
2018-07-05T01:09:45.780Z,2.20
2018-07-05T01:10:45.713Z,1.50
2018-07-05T01:11:45.704Z,1.70
2018-07-05T01:12:45.695Z,1.70
2018-07-05T01:13:45.680Z,1.90
2018-07-05T01:14:45.672Z,1.80
2018-07-05T01:15:45.693Z,2.30
2018-07-05T01:16:45.690Z,2.30
2018-07-05T01:17:45.644Z,2.10
2018-07-05T01:18:45.628Z,1.90
2018-07-05T01:19:45.625Z,1.70
2018-07-05T01:20:45.607Z,1.60
2018-07-05T01:21:45.631Z,1.60
2018-07-05T01:22:45.585Z,1.50
2018-07-05T01:23:45.613Z,1.50
2018-07-05T01:24:45.564Z,1.70
2018-07-05T01:25:45.557Z,2.40
2018-07-05T01:26:45.544Z,1.70
2018-07-05T01:27:45.559Z,1.80
2018-07-05T01:28:45.526Z,1.60
2018-07-05T01:29:45.512Z,1.60
2018-07-05T01:30:45.551Z,1.50
2018-07-05T01:31:45.492Z,1.60
2018-07-05T01:32:45.481Z,2.40
2018-07-05T01:33:45.506Z,1.70
2018-07-05T01:34:45.463Z,1.40
2018-07-05T01:35:45.454Z,1.50
2018-07-05T01:36:45.440Z,1.60
2018-07-05T01:37:45.464Z,1.70
2018-07-05T01:38:45.422Z,1.70
2018-07-05T01:39:45.447Z,2.10
2018-07-05T01:40:45.402Z,1.80
2018-07-05T01:41:45.391Z,2.10
2018-07-05T01:42:45.383Z,2.70
2018-07-05T01:43:45.371Z,1.80
2018-07-05T01:44:45.398Z,2.40
2018-07-05T01:45:45.382Z,1.60
2018-07-05T01:46:45.337Z,1.50
2018-07-05T01:47:45.328Z,2.00
2018-07-05T01:48:45.319Z,1.70
2018-07-05T01:49:45.305Z,1.90
2018-07-05T01:50:45.300Z,1.80
2018-07-05T01:51:45.354Z,2.30
2018-07-05T01:52:45.278Z,1.80
2018-07-05T01:53:45.263Z,1.90
2018-07-05T01:54:45.256Z,1.80
2018-07-05T01:55:45.248Z,1.60
2018-07-05T01:56:45.233Z,1.80
2018-07-05T01:57:45.241Z,1.60
2018-07-05T01:58:45.245Z,2.50
2018-07-05T01:59:45.202Z,2.50
2018-07-05T02:00:45.302Z,1.70
2018-07-05T02:01:45.181Z,1.70
2018-07-05T02:02:45.167Z,1.50
2018-07-05T02:03:45.272Z,1.90
2018-07-05T02:04:45.148Z,1.70
2018-07-05T02:05:49.977Z,1.60
2018-07-05T02:06:45.124Z,2.00
2018-07-05T02:07:45.117Z,1.70
2018-07-05T02:08:45.107Z,1.50
2018-07-05T02:09:45.126Z,2.40
2018-07-05T02:10:45.082Z,1.60
2018-07-05T02:11:45.070Z,2.10
2018-07-05T02:12:45.102Z,1.60
2018-07-05T02:13:45.052Z,1.60
2018-07-05T02:14:45.045Z,2.60
2018-07-05T02:15:45.052Z,1.80
2018-07-05T02:16:45.018Z,1.80
2018-07-05T02:17:45.010Z,2.20
2018-07-05T02:18:44.998Z,1.90
2018-07-05T02:19:45.023Z,1.80
2018-07-05T02:20:44.974Z,1.70
2018-07-05T02:21:44.985Z,1.70
2018-07-05T02:22:44.958Z,2.10
2018-07-05T02:23:44.942Z,1.80
2018-07-05T02:24:44.931Z,2.00
2018-07-05T02:25:44.928Z,2.40
2018-07-05T02:26:44.982Z,1.60
2018-07-05T02:27:44.902Z,2.00
2018-07-05T02:28:44.889Z,1.70
2018-07-05T02:29:44.880Z,2.10
2018-07-05T02:30:44.869Z,1.60
2018-07-05T02:31:44.860Z,1.60
2018-07-05T02:32:44.868Z,1.90
2018-07-05T02:33:44.871Z,1.50
2018-07-05T02:34:44.824Z,2.20
2018-07-05T02:35:44.816Z,2.20
2018-07-05T02:36:44.805Z,1.80
2018-07-05T02:37:44.796Z,1.90
2018-07-05T02:38:44.820Z,1.60
2018-07-05T02:39:44.776Z,1.60
2018-07-05T02:40:44.799Z,1.70
2018-07-05T02:41:44.751Z,1.70
2018-07-05T02:42:44.742Z,2.10
2018-07-05T02:43:44.731Z,1.60
2018-07-05T02:44:44.739Z,1.60
2018-07-05T02:45:44.703Z,1.90
2018-07-05T02:46:44.698Z,1.90
2018-07-05T02:47:44.723Z,2.20
2018-07-05T02:48:44.674Z,1.80
2018-07-05T02:49:44.664Z,1.50
2018-07-05T02:50:44.675Z,1.70
2018-07-05T02:51:44.642Z,2.00
2018-07-05T02:52:44.632Z,1.80
2018-07-05T02:53:44.622Z,2.50
2018-07-05T02:54:44.653Z,1.60
2018-07-05T02:55:44.598Z,1.90
2018-07-05T02:56:44.624Z,1.60
2018-07-05T02:57:44.581Z,1.50
2018-07-05T02:58:44.569Z,1.70
2018-07-05T02:59:44.555Z,1.70
2018-07-05T03:00:44.546Z,1.60
2018-07-05T03:01:44.663Z,1.90
2018-07-05T03:02:44.551Z,2.30
2018-07-05T03:03:44.515Z,1.60
2018-07-05T03:04:44.501Z,1.50
2018-07-05T03:05:44.490Z,1.90
2018-07-05T03:06:49.280Z,1.60
2018-07-05T03:07:44.473Z,1.90
2018-07-05T03:08:44.544Z,1.70
2018-07-05T03:09:44.453Z,1.90
2018-07-05T03:10:44.440Z,2.30
2018-07-05T03:11:44.427Z,1.90
2018-07-05T03:12:44.418Z,2.00
2018-07-05T03:13:44.441Z,1.60
2018-07-05T03:14:44.396Z,1.90
2018-07-05T03:15:44.419Z,1.80
2018-07-05T03:16:44.371Z,1.50
2018-07-05T03:17:44.360Z,1.50
2018-07-05T03:18:44.353Z,1.70
2018-07-05T03:19:44.378Z,1.60
2018-07-05T03:20:44.334Z,1.70
2018-07-05T03:21:44.318Z,1.90
2018-07-05T03:22:44.351Z,1.40
2018-07-05T03:23:44.301Z,1.40
2018-07-05T03:24:44.288Z,1.60
2018-07-05T03:25:44.311Z,2.40
2018-07-05T03:26:44.264Z,1.80
2018-07-05T03:27:44.254Z,1.50
2018-07-05T03:28:44.249Z,1.40
2018-07-05T03:29:44.268Z,2.00
2018-07-05T03:30:44.222Z,1.60
2018-07-05T03:31:44.234Z,1.60
2018-07-05T03:32:44.202Z,1.40
2018-07-05T03:33:44.194Z,1.50
2018-07-05T03:34:44.180Z,2.60
2018-07-05T03:35:44.169Z,1.70
2018-07-05T03:36:44.259Z,1.70
2018-07-05T03:37:44.169Z,1.70
2018-07-05T03:38:44.210Z,1.70
2018-07-05T03:39:44.127Z,1.90
2018-07-05T03:40:44.115Z,1.50
2018-07-05T03:41:44.100Z,1.60
2018-07-05T03:42:44.191Z,1.50
2018-07-05T03:43:44.153Z,1.50
2018-07-05T03:44:44.071Z,2.10
2018-07-05T03:45:44.061Z,1.60
2018-07-05T03:46:44.051Z,1.80
2018-07-05T03:47:44.037Z,1.80
2018-07-05T03:48:44.028Z,1.60
2018-07-05T03:49:44.038Z,1.80
2018-07-05T03:50:44.039Z,2.20
2018-07-05T03:51:43.997Z,2.00
2018-07-05T03:52:43.982Z,1.80
2018-07-05T03:53:43.972Z,1.90
2018-07-05T03:54:43.970Z,1.70
2018-07-05T03:55:43.988Z,1.90
2018-07-05T03:56:43.949Z,1.80
2018-07-05T03:57:43.964Z,2.00
2018-07-05T03:58:43.920Z,2.10
2018-07-05T03:59:43.911Z,1.80
2018-07-05T04:00:43.918Z,1.90
2018-07-05T04:01:43.889Z,1.70
2018-07-05T04:02:44.015Z,1.80
2018-07-05T04:03:43.865Z,1.40
2018-07-05T04:04:43.891Z,2.20
2018-07-05T04:05:43.846Z,3.20
2018-07-05T04:06:43.878Z,2.00
2018-07-05T04:07:48.621Z,1.60
2018-07-05T04:08:43.811Z,1.70
2018-07-05T04:09:43.800Z,1.50
2018-07-05T04:10:43.794Z,1.60
2018-07-05T04:11:43.820Z,1.60
2018-07-05T04:12:43.804Z,2.00
2018-07-05T04:13:43.757Z,1.90
2018-07-05T04:14:43.749Z,1.70
2018-07-05T04:15:43.795Z,1.80
2018-07-05T04:16:43.727Z,1.80
2018-07-05T04:17:43.737Z,1.60
2018-07-05T04:18:43.778Z,2.00
2018-07-05T04:19:43.696Z,1.70
2018-07-05T04:20:43.685Z,2.10
2018-07-05T04:21:43.686Z,2.00
2018-07-05T04:22:43.662Z,1.70
2018-07-05T04:23:43.707Z,1.50
2018-07-05T04:24:43.661Z,2.30
2018-07-05T04:25:43.741Z,1.40
2018-07-05T04:26:43.620Z,1.50
2018-07-05T04:27:43.609Z,1.60
2018-07-05T04:28:43.599Z,1.70
2018-07-05T04:29:43.590Z,1.70
2018-07-05T04:30:43.603Z,1.40
2018-07-05T04:31:43.567Z,1.60
2018-07-05T04:32:43.603Z,1.50
2018-07-05T04:33:43.548Z,1.70
2018-07-05T04:34:43.535Z,2.20
2018-07-05T04:35:43.527Z,1.60
2018-07-05T04:36:43.536Z,1.60
2018-07-05T04:37:43.507Z,1.70
2018-07-05T04:38:43.496Z,1.70
2018-07-05T04:39:43.538Z,1.90
2018-07-05T04:40:43.480Z,1.70
2018-07-05T04:41:43.463Z,1.80
2018-07-05T04:42:43.475Z,1.40
2018-07-05T04:43:43.448Z,1.80
2018-07-05T04:44:43.436Z,1.70
2018-07-05T04:45:43.427Z,2.00
2018-07-05T04:46:43.458Z,1.70
2018-07-05T04:47:43.423Z,1.80
2018-07-05T04:48:43.392Z,1.60
2018-07-05T04:49:43.387Z,2.00
2018-07-05T04:50:43.375Z,1.50
2018-07-05T04:51:43.368Z,1.70
2018-07-05T04:52:43.354Z,1.60
2018-07-05T04:53:43.398Z,1.80
2018-07-05T04:54:43.335Z,1.60
2018-07-05T04:55:43.322Z,1.60
2018-07-05T04:56:43.314Z,1.90
2018-07-05T04:57:43.301Z,1.40
2018-07-05T04:58:43.296Z,1.70
2018-07-05T04:59:43.299Z,1.70
2018-07-05T05:00:43.304Z,2.00
2018-07-05T05:01:43.261Z,1.60
2018-07-05T05:02:43.275Z,1.80
2018-07-05T05:03:43.320Z,1.70
2018-07-05T05:04:43.229Z,1.80
2018-07-05T05:05:43.240Z,2.40
2018-07-05T05:06:43.211Z,1.60
2018-07-05T05:07:43.241Z,1.60
2018-07-05T05:08:48.020Z,1.60
2018-07-05T05:09:43.181Z,1.90
2018-07-05T05:10:43.168Z,2.20
2018-07-05T05:11:43.176Z,1.70
2018-07-05T05:12:43.145Z,1.60
2018-07-05T05:13:43.136Z,2.00
2018-07-05T05:14:43.162Z,1.40
2018-07-05T05:15:43.118Z,1.50
2018-07-05T05:16:43.112Z,1.70
2018-07-05T05:17:43.114Z,1.70
2018-07-05T05:18:43.085Z,1.60
2018-07-05T05:19:43.077Z,2.00
2018-07-05T05:20:43.064Z,1.60
2018-07-05T05:21:43.091Z,1.90
2018-07-05T05:22:43.042Z,1.60
2018-07-05T05:23:43.069Z,1.70
2018-07-05T05:24:43.023Z,1.70
2018-07-05T05:25:43.014Z,2.60
2018-07-05T05:26:43.004Z,2.00
2018-07-05T05:27:42.992Z,1.70
2018-07-05T05:28:43.021Z,1.80
2018-07-05T05:29:42.989Z,1.50
2018-07-05T05:30:42.958Z,1.60
2018-07-05T05:31:42.950Z,2.00
2018-07-05T05:32:42.934Z,1.60
2018-07-05T05:33:42.927Z,1.80
2018-07-05T05:34:42.917Z,1.90
2018-07-05T05:35:42.975Z,1.90
2018-07-05T05:36:42.894Z,2.30
2018-07-05T05:37:42.884Z,2.20
2018-07-05T05:38:42.877Z,1.90
2018-07-05T05:39:42.862Z,1.90
2018-07-05T05:40:42.885Z,1.70
2018-07-05T05:41:42.842Z,1.70
2018-07-05T05:42:42.869Z,2.20
2018-07-05T05:43:42.823Z,1.60
2018-07-05T05:44:42.810Z,2.20
2018-07-05T05:45:42.795Z,1.70
2018-07-05T05:46:42.840Z,1.60
2018-07-05T05:47:42.839Z,1.70
2018-07-05T05:48:42.764Z,1.70
2018-07-05T05:49:42.789Z,2.00
2018-07-05T05:50:42.739Z,2.10
2018-07-05T05:51:42.732Z,2.60
2018-07-05T05:52:42.760Z,2.50
2018-07-05T05:53:42.706Z,2.10
2018-07-05T05:54:42.696Z,1.70
2018-07-05T05:55:42.718Z,2.20
2018-07-05T05:56:42.715Z,2.10
2018-07-05T05:57:42.670Z,1.90
2018-07-05T05:58:42.686Z,2.30
2018-07-05T05:59:42.643Z,1.80
2018-07-05T06:00:42.642Z,2.00
2018-07-05T06:01:42.630Z,2.30
2018-07-05T06:02:42.611Z,2.00
2018-07-05T06:03:42.639Z,2.00
2018-07-05T06:04:42.665Z,2.00
2018-07-05T06:05:42.578Z,2.10
2018-07-05T06:06:42.563Z,2.30
2018-07-05T06:07:42.552Z,2.40
2018-07-05T06:08:42.540Z,2.00
2018-07-05T06:09:47.355Z,1.90
2018-07-05T06:10:42.602Z,1.80
2018-07-05T06:11:42.509Z,2.40
2018-07-05T06:12:42.498Z,3.00
2018-07-05T06:13:42.489Z,2.20
2018-07-05T06:14:42.479Z,2.20
2018-07-05T06:15:42.467Z,2.00
2018-07-05T06:16:42.495Z,2.20
2018-07-05T06:17:42.494Z,2.20
2018-07-05T06:18:42.519Z,2.30
2018-07-05T06:19:42.420Z,2.20
2018-07-05T06:20:42.412Z,2.50
2018-07-05T06:21:42.399Z,2.30
2018-07-05T06:22:42.430Z,2.50
2018-07-05T06:23:42.377Z,2.50
2018-07-05T06:24:42.590Z,2.50
2018-07-05T06:25:42.392Z,1.90
2018-07-05T06:26:42.342Z,2.40
2018-07-05T06:27:42.335Z,2.30
2018-07-05T06:28:42.358Z,2.20
2018-07-05T06:29:42.313Z,2.60
2018-07-05T06:30:42.301Z,2.70
2018-07-05T06:31:42.323Z,2.50
2018-07-05T06:32:42.277Z,2.20
2018-07-05T06:33:42.266Z,2.60
2018-07-05T06:34:42.290Z,2.80
2018-07-05T06:35:42.245Z,2.10
2018-07-05T06:36:42.237Z,2.30
2018-07-05T06:37:42.222Z,2.50
2018-07-05T06:38:42.256Z,2.20
2018-07-05T06:39:42.205Z,3.00
2018-07-05T06:40:42.226Z,3.20
2018-07-05T06:41:42.178Z,4.20
2018-07-05T06:42:42.170Z,2.60
2018-07-05T06:43:42.159Z,2.50
2018-07-05T06:44:42.157Z,2.40
2018-07-05T06:45:42.218Z,2.60
2018-07-05T06:46:42.159Z,2.40
2018-07-05T06:47:42.118Z,2.40
2018-07-05T06:48:42.106Z,2.30
2018-07-05T06:49:42.147Z,2.50
2018-07-05T06:50:42.085Z,2.70
2018-07-05T06:51:42.078Z,2.50
2018-07-05T06:52:42.112Z,2.30
2018-07-05T06:53:42.056Z,2.40
2018-07-05T06:54:42.041Z,3.10
2018-07-05T06:55:42.030Z,3.10
2018-07-05T06:56:42.021Z,2.90
2018-07-05T06:57:42.010Z,2.80
2018-07-05T06:58:42.043Z,2.80
2018-07-05T06:59:42.024Z,2.50
2018-07-05T07:00:41.976Z,3.40
2018-07-05T07:01:41.985Z,3.20
2018-07-05T07:02:41.954Z,2.60
2018-07-05T07:03:41.959Z,2.50
2018-07-05T07:04:41.972Z,3.20
2018-07-05T07:05:41.979Z,3.60
2018-07-05T07:06:41.960Z,2.90
2018-07-05T07:07:41.900Z,2.60
2018-07-05T07:08:41.892Z,2.70
2018-07-05T07:09:41.878Z,2.60
2018-07-05T07:10:46.721Z,2.90
2018-07-05T07:11:41.857Z,3.60
2018-07-05T07:12:41.848Z,2.80
2018-07-05T07:13:41.879Z,2.60
2018-07-05T07:14:41.834Z,2.60
2018-07-05T07:15:41.814Z,3.40
2018-07-05T07:16:41.917Z,3.20
2018-07-05T07:17:41.854Z,3.40
2018-07-05T07:18:41.833Z,3.20
2018-07-05T07:19:41.809Z,5.40
2018-07-05T07:20:41.971Z,2.50
2018-07-05T07:21:41.754Z,2.60
2018-07-05T07:22:41.767Z,3.90
2018-07-05T07:23:41.733Z,3.40
2018-07-05T07:24:41.723Z,2.60
2018-07-05T07:25:41.710Z,3.60
2018-07-05T07:26:41.701Z,2.80
2018-07-05T07:27:41.735Z,2.90
2018-07-05T07:28:41.699Z,2.70
2018-07-05T07:29:41.671Z,4.10
2018-07-05T07:30:41.662Z,3.30
2018-07-05T07:31:41.689Z,3.00
2018-07-05T07:32:41.639Z,3.10
2018-07-05T07:33:41.641Z,2.60
2018-07-05T07:34:41.657Z,3.20
2018-07-05T07:35:41.601Z,3.00
2018-07-05T07:36:41.597Z,3.10
2018-07-05T07:37:41.637Z,2.90
2018-07-05T07:38:41.581Z,3.40
2018-07-05T07:39:41.573Z,3.20
2018-07-05T07:40:41.577Z,3.80
2018-07-05T07:41:41.573Z,3.80
2018-07-05T07:42:41.534Z,4.10
2018-07-05T07:43:41.523Z,2.70
2018-07-05T07:44:41.533Z,2.90
2018-07-05T07:45:41.531Z,2.90
2018-07-05T07:46:41.530Z,3.40
2018-07-05T07:47:41.484Z,3.80
2018-07-05T07:48:41.497Z,5.00
2018-07-05T07:49:41.460Z,5.10
2018-07-05T07:50:41.452Z,3.20
2018-07-05T07:51:41.451Z,4.40
2018-07-05T07:52:41.446Z,3.90
2018-07-05T07:53:41.419Z,3.70
2018-07-05T07:54:41.408Z,4.50
2018-07-05T07:55:41.431Z,3.70
2018-07-05T07:56:41.412Z,3.30
2018-07-05T07:57:41.376Z,3.60
2018-07-05T07:58:41.429Z,3.50
2018-07-05T07:59:41.358Z,3.90
2018-07-05T08:00:41.342Z,4.20
2018-07-05T08:01:41.334Z,4.30
2018-07-05T08:02:41.346Z,4.30
2018-07-05T08:03:41.345Z,3.50
2018-07-05T08:04:41.301Z,4.50
2018-07-05T08:05:41.325Z,4.10
2018-07-05T08:06:41.338Z,4.10
2018-07-05T08:07:41.269Z,5.80
2018-07-05T08:08:41.261Z,5.40
2018-07-05T08:09:41.296Z,4.90
2018-07-05T08:10:41.278Z,5.40
2018-07-05T08:11:46.049Z,7.00
2018-07-05T08:12:41.231Z,7.80
2018-07-05T08:13:41.206Z,5.00
2018-07-05T08:14:41.192Z,6.40
2018-07-05T08:15:41.823Z,4.80
2018-07-05T08:16:41.255Z,4.10
2018-07-05T08:17:41.163Z,5.60
2018-07-05T08:18:41.155Z,6.00
2018-07-05T08:19:41.166Z,4.30
2018-07-05T08:20:41.136Z,4.80
2018-07-05T08:21:41.161Z,5.10
2018-07-05T08:22:41.115Z,5.00
2018-07-05T08:23:41.120Z,4.90
2018-07-05T08:24:41.089Z,4.50
2018-07-05T08:25:41.083Z,5.50
2018-07-05T08:26:41.089Z,4.60
2018-07-05T08:27:41.094Z,5.90
2018-07-05T08:28:41.053Z,6.40
2018-07-05T08:29:41.041Z,4.60
2018-07-05T08:30:41.054Z,5.10
2018-07-05T08:31:41.018Z,5.70
2018-07-05T08:32:41.022Z,6.10
2018-07-05T08:33:41.040Z,5.70
2018-07-05T08:34:40.983Z,9.00
2018-07-05T08:35:40.973Z,5.30
2018-07-05T08:36:40.963Z,4.00
2018-07-05T08:37:40.991Z,5.40
2018-07-05T08:38:40.941Z,5.60
2018-07-05T08:39:40.949Z,5.80
2018-07-05T08:40:40.945Z,4.30
2018-07-05T08:41:40.909Z,8.50
2018-07-05T08:42:40.905Z,5.10
2018-07-05T08:43:40.891Z,4.80
2018-07-05T08:44:40.931Z,6.50
2018-07-05T08:45:40.870Z,5.80
2018-07-05T08:46:40.860Z,5.40
2018-07-05T08:47:40.869Z,5.00
2018-07-05T08:48:40.851Z,5.60
2018-07-05T08:49:40.828Z,6.80
2018-07-05T08:50:40.835Z,5.80
2018-07-05T08:51:40.836Z,8.80
2018-07-05T08:52:40.795Z,5.90
2018-07-05T08:53:40.829Z,7.20
2018-07-05T08:54:40.797Z,7.80
2018-07-05T08:55:41.095Z,8.90
2018-07-05T08:56:40.797Z,8.80
2018-07-05T08:57:40.768Z,6.10
2018-07-05T08:58:40.760Z,5.50
2018-07-05T08:59:41.043Z,7.00
2018-07-05T09:00:40.711Z,5.90
2018-07-05T09:01:40.822Z,7.30
2018-07-05T09:02:40.724Z,6.60
2018-07-05T09:03:40.682Z,7.10
2018-07-05T09:04:40.669Z,8.50
2018-07-05T09:05:40.684Z,6.40
2018-07-05T09:06:40.649Z,7.60
2018-07-05T09:07:40.687Z,6.90
2018-07-05T09:08:40.684Z,7.80
2018-07-05T09:09:40.619Z,7.10
2018-07-05T09:10:40.606Z,8.40
2018-07-05T09:11:40.597Z,8.30
2018-07-05T09:12:45.422Z,5.70
2018-07-05T09:13:40.576Z,9.30
2018-07-05T09:14:40.654Z,6.30
2018-07-05T09:15:40.572Z,7.40
2018-07-05T09:16:40.551Z,8.40
2018-07-05T09:17:40.710Z,7.20
2018-07-05T09:18:40.524Z,8.50
2018-07-05T09:19:40.541Z,9.50
2018-07-05T09:20:40.539Z,7.50
2018-07-05T09:21:40.501Z,5.80
2018-07-05T09:22:40.498Z,8.30
2018-07-05T09:23:40.474Z,9.20
2018-07-05T09:24:40.459Z,8.60
2018-07-05T09:25:40.544Z,7.90
2018-07-05T09:26:40.515Z,8.40
2018-07-05T09:27:40.452Z,7.30
2018-07-05T09:28:40.422Z,7.40
2018-07-05T09:29:40.422Z,8.50
2018-07-05T09:30:40.719Z,8.90
2018-07-05T09:31:40.389Z,6.90
2018-07-05T09:32:40.733Z,6.90
2018-07-05T09:33:40.393Z,7.00
2018-07-05T09:34:40.792Z,9.00
2018-07-05T09:35:40.355Z,6.40
2018-07-05T09:36:40.371Z,7.40
2018-07-05T09:37:40.430Z,9.30
2018-07-05T09:38:40.343Z,7.20
2018-07-05T09:39:40.310Z,7.30
2018-07-05T09:40:40.320Z,8.00
2018-07-05T09:41:40.293Z,9.10
2018-07-05T09:42:40.280Z,6.90
2018-07-05T09:43:40.292Z,7.90
2018-07-05T09:44:40.277Z,8.90
2018-07-05T09:45:40.251Z,8.90
2018-07-05T09:46:40.240Z,8.30
2018-07-05T09:47:40.254Z,7.20
2018-07-05T09:48:40.217Z,8.20
2018-07-05T09:49:40.329Z,7.30
2018-07-05T09:50:40.213Z,7.20
2018-07-05T09:51:40.190Z,5.00
2018-07-05T09:52:40.220Z,5.90
2018-07-05T09:53:40.168Z,6.10
2018-07-05T09:54:40.186Z,5.50
2018-07-05T09:55:40.175Z,8.90
2018-07-05T09:56:40.139Z,6.60
2018-07-05T09:57:40.153Z,6.80
2018-07-05T09:58:40.121Z,6.30
2018-07-05T09:59:40.111Z,4.70
2018-07-05T10:00:40.100Z,9.70
2018-07-05T10:01:40.182Z,6.00
2018-07-05T10:02:40.077Z,7.40
2018-07-05T10:03:40.390Z,6.10
2018-07-05T10:04:40.075Z,7.00
2018-07-05T10:05:40.058Z,7.50
2018-07-05T10:06:40.041Z,4.20
2018-07-05T10:07:40.165Z,5.70
2018-07-05T10:08:40.120Z,6.00
2018-07-05T10:09:40.009Z,7.20
2018-07-05T10:10:39.998Z,4.70
2018-07-05T10:11:40.091Z,6.70
2018-07-05T10:12:39.973Z,5.40
2018-07-05T10:13:45.317Z,4.90
2018-07-05T10:14:41.049Z,5.80
2018-07-05T10:15:39.938Z,7.10
2018-07-05T10:16:39.929Z,4.50
2018-07-05T10:17:39.915Z,4.40
2018-07-05T10:18:39.946Z,6.20
2018-07-05T10:19:39.897Z,6.40
2018-07-05T10:20:39.884Z,4.60
2018-07-05T10:21:39.896Z,5.10
2018-07-05T10:22:39.865Z,4.10
2018-07-05T10:23:39.852Z,4.40
2018-07-05T10:24:39.859Z,5.40
2018-07-05T10:25:39.847Z,4.50
2018-07-05T10:26:39.926Z,6.50
2018-07-05T10:27:39.813Z,5.10
2018-07-05T10:28:39.822Z,5.30
2018-07-05T10:29:39.796Z,4.10
2018-07-05T10:30:39.818Z,4.40
2018-07-05T10:31:39.767Z,5.40
2018-07-05T10:32:39.770Z,5.80
2018-07-05T10:33:39.752Z,5.60
2018-07-05T10:34:39.739Z,4.70
2018-07-05T10:35:39.753Z,4.50
2018-07-05T10:36:39.739Z,4.70
2018-07-05T10:37:39.710Z,4.40
2018-07-05T10:38:39.698Z,4.00
2018-07-05T10:39:39.733Z,4.30
2018-07-05T10:40:39.675Z,5.30
2018-07-05T10:41:39.665Z,4.50
2018-07-05T10:42:39.710Z,4.00
2018-07-05T10:43:39.643Z,3.90
2018-07-05T10:44:39.633Z,4.30
2018-07-05T10:45:39.623Z,4.90
2018-07-05T10:46:39.625Z,4.10
2018-07-05T10:47:39.604Z,4.20
2018-07-05T10:48:39.629Z,5.10
2018-07-05T10:49:39.606Z,5.10
2018-07-05T10:50:39.572Z,6.00
2018-07-05T10:51:39.560Z,4.20
2018-07-05T10:52:39.552Z,4.90
2018-07-05T10:53:39.555Z,5.90
2018-07-05T10:54:39.712Z,5.00
2018-07-05T10:55:39.524Z,6.70
2018-07-05T10:56:39.534Z,5.10
2018-07-05T10:57:39.497Z,4.70
2018-07-05T10:58:39.488Z,3.50
2018-07-05T10:59:39.483Z,3.80
2018-07-05T11:00:39.536Z,4.00
2018-07-05T11:01:39.464Z,3.70
2018-07-05T11:02:39.454Z,3.50
2018-07-05T11:03:39.461Z,4.70
2018-07-05T11:04:39.433Z,5.10
2018-07-05T11:05:39.418Z,4.30
2018-07-05T11:06:39.447Z,4.30
2018-07-05T11:07:39.423Z,5.40
2018-07-05T11:08:39.387Z,4.60
2018-07-05T11:09:39.419Z,4.20
2018-07-05T11:10:39.390Z,4.70
2018-07-05T11:11:39.358Z,4.30
2018-07-05T11:12:39.386Z,4.60
2018-07-05T11:13:39.338Z,4.10
2018-07-05T11:14:44.234Z,5.30
2018-07-05T11:15:39.318Z,4.40
2018-07-05T11:16:39.365Z,3.90
2018-07-05T11:17:39.316Z,3.60
2018-07-05T11:18:39.325Z,4.60
2018-07-05T11:19:39.277Z,4.10
2018-07-05T11:20:39.266Z,3.90
2018-07-05T11:21:39.265Z,3.80
2018-07-05T11:22:39.246Z,4.50
2018-07-05T11:23:39.234Z,4.50
2018-07-05T11:24:39.279Z,4.90
2018-07-05T11:25:39.214Z,3.80
2018-07-05T11:26:39.206Z,4.60
2018-07-05T11:27:39.197Z,3.70
2018-07-05T11:28:39.196Z,4.70
2018-07-05T11:29:39.184Z,3.90
2018-07-05T11:30:39.198Z,3.50
2018-07-05T11:31:39.177Z,3.70
2018-07-05T11:32:39.142Z,4.50
2018-07-05T11:33:39.134Z,4.40
2018-07-05T11:34:39.119Z,3.60
2018-07-05T11:35:39.125Z,3.90
2018-07-05T11:36:39.141Z,5.30
2018-07-05T11:37:39.088Z,3.40
2018-07-05T11:38:39.101Z,4.10
2018-07-05T11:39:39.068Z,4.00
2018-07-05T11:40:39.060Z,3.60
2018-07-05T11:41:39.049Z,4.10
2018-07-05T11:42:39.101Z,5.00
2018-07-05T11:43:39.029Z,4.90
2018-07-05T11:44:39.020Z,4.60
2018-07-05T11:45:39.032Z,3.90
2018-07-05T11:46:39.035Z,4.70
2018-07-05T11:47:38.991Z,5.90
2018-07-05T11:48:39.012Z,4.60
2018-07-05T11:49:38.983Z,3.50
2018-07-05T11:50:38.958Z,4.10
2018-07-05T11:51:38.948Z,5.80
2018-07-05T11:52:38.964Z,3.90
2018-07-05T11:53:38.932Z,3.80
2018-07-05T11:54:38.957Z,3.60
2018-07-05T11:55:38.908Z,3.80
2018-07-05T11:56:38.907Z,4.90
2018-07-05T11:57:38.891Z,4.20
2018-07-05T11:58:38.887Z,4.50
2018-07-05T11:59:38.894Z,4.10
2018-07-05T12:00:38.892Z,3.70
2018-07-05T12:01:38.846Z,4.80
2018-07-05T12:02:38.837Z,4.20
2018-07-05T12:03:38.842Z,3.70
2018-07-05T12:04:38.817Z,3.60
2018-07-05T12:05:38.810Z,4.00
2018-07-05T12:06:38.859Z,4.10
2018-07-05T12:07:38.785Z,4.40
2018-07-05T12:08:38.868Z,4.10
2018-07-05T12:09:38.761Z,4.50
2018-07-05T12:10:38.904Z,4.20
2018-07-05T12:11:38.744Z,3.50
2018-07-05T12:12:38.781Z,5.80
2018-07-05T12:13:38.742Z,3.80
2018-07-05T12:14:38.732Z,5.10
2018-07-05T12:15:43.520Z,3.50
2018-07-05T12:16:38.696Z,3.90
2018-07-05T12:17:38.696Z,3.70
2018-07-05T12:18:38.704Z,4.00
2018-07-05T12:19:38.659Z,4.00
2018-07-05T12:20:38.670Z,3.50
2018-07-05T12:21:38.641Z,3.50
2018-07-05T12:22:38.630Z,5.50
2018-07-05T12:23:38.622Z,3.40
2018-07-05T12:24:38.658Z,3.50
2018-07-05T12:25:38.600Z,4.70
2018-07-05T12:26:38.588Z,5.10
2018-07-05T12:27:38.593Z,3.90
2018-07-05T12:28:38.622Z,3.90
2018-07-05T12:29:38.560Z,3.80
2018-07-05T12:30:38.605Z,4.00
2018-07-05T12:31:38.566Z,4.20
2018-07-05T12:32:38.529Z,3.90
2018-07-05T12:33:38.538Z,4.30
2018-07-05T12:34:38.526Z,3.70
2018-07-05T12:35:38.497Z,3.60
2018-07-05T12:36:38.527Z,3.90
2018-07-05T12:37:38.478Z,4.20
2018-07-05T12:38:38.478Z,4.60
2018-07-05T12:39:38.458Z,5.00
2018-07-05T12:40:38.447Z,5.20
2018-07-05T12:41:38.459Z,3.60
2018-07-05T12:42:38.463Z,4.20
2018-07-05T12:43:38.431Z,3.80
2018-07-05T12:44:38.404Z,4.00
2018-07-05T12:45:38.421Z,3.70
2018-07-05T12:46:38.386Z,3.80
2018-07-05T12:47:38.383Z,4.20
2018-07-05T12:48:38.433Z,3.90
2018-07-05T12:49:38.364Z,3.90
2018-07-05T12:50:38.346Z,4.00
2018-07-05T12:51:38.394Z,3.70
2018-07-05T12:52:38.341Z,3.80
2018-07-05T12:53:38.674Z,4.10
2018-07-05T12:54:38.341Z,3.80
2018-07-05T12:55:38.636Z,4.40
2018-07-05T12:56:38.281Z,3.90
2018-07-05T12:57:38.365Z,4.10
2018-07-05T12:58:38.260Z,3.80
2018-07-05T12:59:38.268Z,4.00
2018-07-05T13:00:38.278Z,3.60
2018-07-05T13:01:38.235Z,3.80
2018-07-05T13:02:38.239Z,4.20
2018-07-05T13:03:38.214Z,4.70
2018-07-05T13:04:38.202Z,3.50
2018-07-05T13:05:38.192Z,3.80
2018-07-05T13:06:38.227Z,3.80
2018-07-05T13:07:38.168Z,4.50
2018-07-05T13:08:38.162Z,3.90
2018-07-05T13:09:38.171Z,3.70
2018-07-05T13:10:38.141Z,4.10
2018-07-05T13:11:38.131Z,3.90
2018-07-05T13:12:38.253Z,3.80
2018-07-05T13:13:38.123Z,3.60
2018-07-05T13:14:38.099Z,3.80
2018-07-05T13:15:38.086Z,4.00
2018-07-05T13:16:42.916Z,4.40
2018-07-05T13:17:38.068Z,3.90
2018-07-05T13:18:38.093Z,4.40